sensor_id;sensor_type;location;lat;lon;timestamp;P1;durP1;ratioP1;P2;durP2;ratioP2
9156;SDS011;4613;48.392;9.998;2023-02-20T00:00:10;1.50;;;1.33;;
9156;SDS011;4613;48.392;9.998;2023-02-20T00:03:06;1.20;;;1.10;;
9156;SDS011;4613;48.392;9.998;2023-02-20T00:05:56;2.30;;;1.27;;
9156;SDS011;4613;48.392;9.998;2023-02-20T00:08:45;1.70;;;1.20;;
9156;SDS011;4613;48.392;9.998;2023-02-20T00:11:35;2.10;;;1.40;;
9156;SDS011;4613;48.392;9.998;2023-02-20T00:14:25;2.60;;;1.23;;
9156;SDS011;4613;48.392;9.998;2023-02-20T00:17:14;1.47;;;1.30;;
9156;SDS011;4613;48.392;9.998;2023-02-20T00:20:03;1.50;;;1.27;;
9156;SDS011;4613;48.392;9.998;2023-02-20T00:22:53;2.90;;;1.37;;
9156;SDS011;4613;48.392;9.998;2023-02-20T00:25:43;1.30;;;1.20;;
9156;SDS011;4613;48.392;9.998;2023-02-20T00:28:33;1.40;;;1.20;;
9156;SDS011;4613;48.392;9.998;2023-02-20T00:31:26;3.33;;;1.30;;
9156;SDS011;4613;48.392;9.998;2023-02-20T00:34:15;3.50;;;1.17;;
9156;SDS011;4613;48.392;9.998;2023-02-20T00:37:06;2.87;;;1.20;;
9156;SDS011;4613;48.392;9.998;2023-02-20T00:39:56;1.20;;;1.10;;
9156;SDS011;4613;48.392;9.998;2023-02-20T00:42:45;1.57;;;1.20;;
9156;SDS011;4613;48.392;9.998;2023-02-20T00:45:35;1.30;;;1.20;;
9156;SDS011;4613;48.392;9.998;2023-02-20T00:48:24;1.23;;;1.03;;
9156;SDS011;4613;48.392;9.998;2023-02-20T00:51:33;1.30;;;1.20;;
9156;SDS011;4613;48.392;9.998;2023-02-20T00:54:23;1.33;;;1.20;;
9156;SDS011;4613;48.392;9.998;2023-02-20T00:57:13;1.67;;;1.30;;
9156;SDS011;4613;48.392;9.998;2023-02-20T01:00:03;1.50;;;1.17;;
9156;SDS011;4613;48.392;9.998;2023-02-20T01:02:54;2.20;;;1.47;;
9156;SDS011;4613;48.392;9.998;2023-02-20T01:05:44;1.60;;;1.50;;
9156;SDS011;4613;48.392;9.998;2023-02-20T01:08:33;1.20;;;1.10;;
9156;SDS011;4613;48.392;9.998;2023-02-20T01:11:25;3.23;;;1.50;;
9156;SDS011;4613;48.392;9.998;2023-02-20T01:14:14;3.20;;;1.27;;
9156;SDS011;4613;48.392;9.998;2023-02-20T01:17:04;3.87;;;1.50;;
9156;SDS011;4613;48.392;9.998;2023-02-20T01:19:54;1.47;;;1.37;;
9156;SDS011;4613;48.392;9.998;2023-02-20T01:22:43;1.33;;;1.23;;
9156;SDS011;4613;48.392;9.998;2023-02-20T01:25:32;1.67;;;1.40;;
9156;SDS011;4613;48.392;9.998;2023-02-20T01:28:22;1.20;;;1.10;;
9156;SDS011;4613;48.392;9.998;2023-02-20T01:31:12;2.07;;;1.40;;
9156;SDS011;4613;48.392;9.998;2023-02-20T01:34:01;1.30;;;1.20;;
9156;SDS011;4613;48.392;9.998;2023-02-20T01:36:52;3.13;;;1.50;;
9156;SDS011;4613;48.392;9.998;2023-02-20T01:39:45;2.80;;;1.20;;
9156;SDS011;4613;48.392;9.998;2023-02-20T01:42:36;2.20;;;1.10;;
9156;SDS011;4613;48.392;9.998;2023-02-20T01:45:31;1.38;;;1.15;;
9156;SDS011;4613;48.392;9.998;2023-02-20T01:48:25;2.13;;;1.20;;
9156;SDS011;4613;48.392;9.998;2023-02-20T01:51:15;1.30;;;1.20;;
9156;SDS011;4613;48.392;9.998;2023-02-20T01:54:06;1.70;;;1.43;;
9156;SDS011;4613;48.392;9.998;2023-02-20T01:56:57;1.63;;;1.20;;
9156;SDS011;4613;48.392;9.998;2023-02-20T01:59:51;1.10;;;1.00;;
9156;SDS011;4613;48.392;9.998;2023-02-20T02:02:48;1.20;;;1.10;;
9156;SDS011;4613;48.392;9.998;2023-02-20T02:05:41;1.37;;;1.23;;
9156;SDS011;4613;48.392;9.998;2023-02-20T02:08:34;1.37;;;1.20;;
9156;SDS011;4613;48.392;9.998;2023-02-20T02:11:25;1.10;;;1.10;;
9156;SDS011;4613;48.392;9.998;2023-02-20T02:14:15;2.47;;;1.40;;
9156;SDS011;4613;48.392;9.998;2023-02-20T02:17:08;1.20;;;1.10;;
9156;SDS011;4613;48.392;9.998;2023-02-20T02:40:24;1.20;;;1.10;;
9156;SDS011;4613;48.392;9.998;2023-02-20T02:43:28;1.30;;;1.20;;
9156;SDS011;4613;48.392;9.998;2023-02-20T02:49:50;2.53;;;1.07;;
9156;SDS011;4613;48.392;9.998;2023-02-20T02:52:50;1.40;;;1.30;;
9156;SDS011;4613;48.392;9.998;2023-02-20T02:55:41;1.27;;;1.17;;
9156;SDS011;4613;48.392;9.998;2023-02-20T02:58:31;1.35;;;1.08;;
9156;SDS011;4613;48.392;9.998;2023-02-20T03:01:21;2.07;;;1.40;;
9156;SDS011;4613;48.392;9.998;2023-02-20T03:04:12;1.85;;;1.13;;
9156;SDS011;4613;48.392;9.998;2023-02-20T03:07:06;1.10;;;1.10;;
9156;SDS011;4613;48.392;9.998;2023-02-20T03:10:03;1.60;;;1.13;;
9156;SDS011;4613;48.392;9.998;2023-02-20T03:12:58;2.07;;;1.20;;
9156;SDS011;4613;48.392;9.998;2023-02-20T03:15:53;1.77;;;1.40;;
9156;SDS011;4613;48.392;9.998;2023-02-20T03:18:43;1.20;;;1.20;;
9156;SDS011;4613;48.392;9.998;2023-02-20T03:21:34;1.30;;;1.20;;
9156;SDS011;4613;48.392;9.998;2023-02-20T03:24:26;1.23;;;1.13;;
9156;SDS011;4613;48.392;9.998;2023-02-20T03:30:05;1.80;;;1.30;;
9156;SDS011;4613;48.392;9.998;2023-02-20T03:33:03;1.50;;;1.27;;
9156;SDS011;4613;48.392;9.998;2023-02-20T03:36:21;1.20;;;1.07;;
9156;SDS011;4613;48.392;9.998;2023-02-20T03:39:36;1.40;;;1.30;;
9156;SDS011;4613;48.392;9.998;2023-02-20T03:42:48;1.50;;;1.07;;
9156;SDS011;4613;48.392;9.998;2023-02-20T03:46:22;1.23;;;1.10;;
9156;SDS011;4613;48.392;9.998;2023-02-20T03:49:15;1.80;;;1.40;;
9156;SDS011;4613;48.392;9.998;2023-02-20T03:52:09;1.40;;;1.30;;
9156;SDS011;4613;48.392;9.998;2023-02-20T03:55:01;1.90;;;1.10;;
9156;SDS011;4613;48.392;9.998;2023-02-20T03:57:52;1.27;;;1.17;;
9156;SDS011;4613;48.392;9.998;2023-02-20T04:00:46;1.07;;;1.00;;
9156;SDS011;4613;48.392;9.998;2023-02-20T04:03:39;1.20;;;1.10;;
9156;SDS011;4613;48.392;9.998;2023-02-20T04:06:32;1.33;;;1.10;;
9156;SDS011;4613;48.392;9.998;2023-02-20T04:09:27;1.53;;;1.27;;
9156;SDS011;4613;48.392;9.998;2023-02-20T04:12:21;1.53;;;1.43;;
9156;SDS011;4613;48.392;9.998;2023-02-20T04:15:17;2.57;;;1.70;;
9156;SDS011;4613;48.392;9.998;2023-02-20T04:18:10;4.17;;;2.47;;
9156;SDS011;4613;48.392;9.998;2023-02-20T04:21:05;2.10;;;1.90;;
9156;SDS011;4613;48.392;9.998;2023-02-20T04:24:05;1.67;;;1.57;;
9156;SDS011;4613;48.392;9.998;2023-02-20T04:26:57;1.70;;;1.60;;
9156;SDS011;4613;48.392;9.998;2023-02-20T04:29:46;2.93;;;2.00;;
9156;SDS011;4613;48.392;9.998;2023-02-20T04:32:37;2.00;;;1.77;;
9156;SDS011;4613;48.392;9.998;2023-02-20T04:35:26;1.60;;;1.50;;
9156;SDS011;4613;48.392;9.998;2023-02-20T04:38:16;2.47;;;1.63;;
9156;SDS011;4613;48.392;9.998;2023-02-20T04:41:05;2.63;;;1.70;;
9156;SDS011;4613;48.392;9.998;2023-02-20T04:43:55;4.13;;;1.80;;
9156;SDS011;4613;48.392;9.998;2023-02-20T04:47:06;1.57;;;1.33;;
9156;SDS011;4613;48.392;9.998;2023-02-20T04:49:59;3.10;;;2.20;;
9156;SDS011;4613;48.392;9.998;2023-02-20T04:52:49;2.42;;;1.50;;
9156;SDS011;4613;48.392;9.998;2023-02-20T04:55:38;1.40;;;1.30;;
9156;SDS011;4613;48.392;9.998;2023-02-20T04:58:32;1.80;;;1.40;;
9156;SDS011;4613;48.392;9.998;2023-02-20T05:01:31;1.40;;;1.30;;
9156;SDS011;4613;48.392;9.998;2023-02-20T05:04:20;1.63;;;1.20;;
9156;SDS011;4613;48.392;9.998;2023-02-20T05:07:10;1.38;;;1.27;;
9156;SDS011;4613;48.392;9.998;2023-02-20T05:09:59;1.30;;;1.20;;
9156;SDS011;4613;48.392;9.998;2023-02-20T05:12:48;2.67;;;1.25;;
9156;SDS011;4613;48.392;9.998;2023-02-20T05:15:38;3.88;;;1.35;;
9156;SDS011;4613;48.392;9.998;2023-02-20T05:18:28;1.25;;;1.15;;
9156;SDS011;4613;48.392;9.998;2023-02-20T05:21:21;1.73;;;1.58;;
9156;SDS011;4613;48.392;9.998;2023-02-20T05:24:29;1.48;;;1.20;;
9156;SDS011;4613;48.392;9.998;2023-02-20T05:27:21;3.17;;;1.30;;
9156;SDS011;4613;48.392;9.998;2023-02-20T05:30:11;3.45;;;1.58;;
9156;SDS011;4613;48.392;9.998;2023-02-20T05:33:00;1.45;;;1.35;;
9156;SDS011;4613;48.392;9.998;2023-02-20T05:35:50;1.50;;;1.40;;
9156;SDS011;4613;48.392;9.998;2023-02-20T05:38:39;1.45;;;1.35;;
9156;SDS011;4613;48.392;9.998;2023-02-20T05:41:31;1.50;;;1.40;;
9156;SDS011;4613;48.392;9.998;2023-02-20T05:44:20;2.35;;;1.58;;
9156;SDS011;4613;48.392;9.998;2023-02-20T05:47:09;2.65;;;1.67;;
9156;SDS011;4613;48.392;9.998;2023-02-20T05:49:58;3.78;;;2.08;;
9156;SDS011;4613;48.392;9.998;2023-02-20T05:52:47;2.83;;;1.60;;
9156;SDS011;4613;48.392;9.998;2023-02-20T05:55:36;2.00;;;1.60;;
9156;SDS011;4613;48.392;9.998;2023-02-20T05:58:25;4.00;;;1.80;;
9156;SDS011;4613;48.392;9.998;2023-02-20T06:01:25;3.22;;;1.80;;
9156;SDS011;4613;48.392;9.998;2023-02-20T06:04:18;1.70;;;1.55;;
9156;SDS011;4613;48.392;9.998;2023-02-20T06:07:08;1.65;;;1.50;;
9156;SDS011;4613;48.392;9.998;2023-02-20T06:10:00;2.33;;;1.45;;
9156;SDS011;4613;48.392;9.998;2023-02-20T06:12:50;4.07;;;1.60;;
9156;SDS011;4613;48.392;9.998;2023-02-20T06:15:39;2.55;;;1.60;;
9156;SDS011;4613;48.392;9.998;2023-02-20T06:18:28;2.67;;;1.60;;
9156;SDS011;4613;48.392;9.998;2023-02-20T06:21:18;2.13;;;1.35;;
9156;SDS011;4613;48.392;9.998;2023-02-20T06:24:08;3.63;;;1.63;;
9156;SDS011;4613;48.392;9.998;2023-02-20T06:26:58;1.70;;;1.60;;
9156;SDS011;4613;48.392;9.998;2023-02-20T06:29:48;1.52;;;1.30;;
9156;SDS011;4613;48.392;9.998;2023-02-20T06:32:37;1.55;;;1.42;;
9156;SDS011;4613;48.392;9.998;2023-02-20T06:35:27;3.22;;;1.77;;
9156;SDS011;4613;48.392;9.998;2023-02-20T06:38:17;1.95;;;1.58;;
9156;SDS011;4613;48.392;9.998;2023-02-20T06:41:06;2.17;;;1.45;;
9156;SDS011;4613;48.392;9.998;2023-02-20T06:43:55;2.75;;;1.50;;
9156;SDS011;4613;48.392;9.998;2023-02-20T06:46:45;2.28;;;1.60;;
9156;SDS011;4613;48.392;9.998;2023-02-20T06:49:35;2.08;;;1.73;;
9156;SDS011;4613;48.392;9.998;2023-02-20T06:52:25;1.88;;;1.55;;
9156;SDS011;4613;48.392;9.998;2023-02-20T06:55:14;1.95;;;1.50;;
9156;SDS011;4613;48.392;9.998;2023-02-20T06:58:04;3.25;;;1.50;;
9156;SDS011;4613;48.392;9.998;2023-02-20T07:00:53;1.35;;;1.25;;
9156;SDS011;4613;48.392;9.998;2023-02-20T07:03:42;8.35;;;1.63;;
9156;SDS011;4613;48.392;9.998;2023-02-20T07:06:33;1.90;;;1.60;;
9156;SDS011;4613;48.392;9.998;2023-02-20T07:09:22;2.45;;;1.30;;
9156;SDS011;4613;48.392;9.998;2023-02-20T07:12:12;2.83;;;1.80;;
9156;SDS011;4613;48.392;9.998;2023-02-20T07:15:02;1.55;;;1.40;;
9156;SDS011;4613;48.392;9.998;2023-02-20T07:17:52;1.88;;;1.70;;
9156;SDS011;4613;48.392;9.998;2023-02-20T07:20:42;1.73;;;1.52;;
9156;SDS011;4613;48.392;9.998;2023-02-20T07:23:31;3.87;;;2.27;;
9156;SDS011;4613;48.392;9.998;2023-02-20T07:26:22;2.93;;;1.93;;
9156;SDS011;4613;48.392;9.998;2023-02-20T07:29:13;2.45;;;1.50;;
9156;SDS011;4613;48.392;9.998;2023-02-20T07:32:02;3.05;;;1.73;;
9156;SDS011;4613;48.392;9.998;2023-02-20T07:34:52;1.80;;;1.63;;
9156;SDS011;4613;48.392;9.998;2023-02-20T07:37:41;1.80;;;1.70;;
9156;SDS011;4613;48.392;9.998;2023-02-20T07:40:30;1.97;;;1.50;;
9156;SDS011;4613;48.392;9.998;2023-02-20T07:43:20;1.60;;;1.50;;
9156;SDS011;4613;48.392;9.998;2023-02-20T07:46:12;2.50;;;1.40;;
9156;SDS011;4613;48.392;9.998;2023-02-20T07:49:03;1.50;;;1.40;;
9156;SDS011;4613;48.392;9.998;2023-02-20T07:51:53;3.20;;;1.53;;
9156;SDS011;4613;48.392;9.998;2023-02-20T07:54:42;1.40;;;1.30;;
9156;SDS011;4613;48.392;9.998;2023-02-20T07:57:31;2.00;;;1.20;;
9156;SDS011;4613;48.392;9.998;2023-02-20T08:00:23;1.87;;;1.30;;
9156;SDS011;4613;48.392;9.998;2023-02-20T08:03:14;1.40;;;1.27;;
9156;SDS011;4613;48.392;9.998;2023-02-20T08:06:03;2.10;;;1.70;;
9156;SDS011;4613;48.392;9.998;2023-02-20T08:08:53;2.53;;;2.07;;
9156;SDS011;4613;48.392;9.998;2023-02-20T08:11:42;1.70;;;1.60;;
9156;SDS011;4613;48.392;9.998;2023-02-20T08:14:32;1.30;;;1.20;;
9156;SDS011;4613;48.392;9.998;2023-02-20T08:17:21;1.20;;;1.10;;
9156;SDS011;4613;48.392;9.998;2023-02-20T08:20:11;2.00;;;1.63;;
9156;SDS011;4613;48.392;9.998;2023-02-20T08:23:02;2.73;;;1.40;;
9156;SDS011;4613;48.392;9.998;2023-02-20T08:25:53;1.03;;;1.03;;
9156;SDS011;4613;48.392;9.998;2023-02-20T08:28:43;1.40;;;1.30;;
9156;SDS011;4613;48.392;9.998;2023-02-20T08:31:36;1.70;;;1.50;;
9156;SDS011;4613;48.392;9.998;2023-02-20T08:34:26;1.80;;;1.43;;
9156;SDS011;4613;48.392;9.998;2023-02-20T08:37:15;1.50;;;1.40;;
9156;SDS011;4613;48.392;9.998;2023-02-20T08:40:05;1.40;;;1.30;;
9156;SDS011;4613;48.392;9.998;2023-02-20T08:42:56;1.63;;;1.40;;
9156;SDS011;4613;48.392;9.998;2023-02-20T08:45:45;1.17;;;1.10;;
9156;SDS011;4613;48.392;9.998;2023-02-20T08:48:35;2.20;;;1.40;;
9156;SDS011;4613;48.392;9.998;2023-02-20T08:51:24;1.83;;;1.43;;
9156;SDS011;4613;48.392;9.998;2023-02-20T08:54:14;2.03;;;1.60;;
9156;SDS011;4613;48.392;9.998;2023-02-20T08:57:03;1.60;;;1.50;;
9156;SDS011;4613;48.392;9.998;2023-02-20T08:59:54;2.10;;;1.60;;
9156;SDS011;4613;48.392;9.998;2023-02-20T09:02:45;1.33;;;1.23;;
9156;SDS011;4613;48.392;9.998;2023-02-20T09:05:35;2.47;;;1.40;;
9156;SDS011;4613;48.392;9.998;2023-02-20T09:08:25;2.47;;;1.30;;
9156;SDS011;4613;48.392;9.998;2023-02-20T09:11:15;3.83;;;1.40;;
9156;SDS011;4613;48.392;9.998;2023-02-20T09:14:04;2.17;;;1.40;;
9156;SDS011;4613;48.392;9.998;2023-02-20T09:16:53;1.20;;;1.10;;
9156;SDS011;4613;48.392;9.998;2023-02-20T09:19:43;1.57;;;1.40;;
9156;SDS011;4613;48.392;9.998;2023-02-20T09:22:32;1.40;;;1.30;;
9156;SDS011;4613;48.392;9.998;2023-02-20T09:25:22;2.00;;;1.73;;
9156;SDS011;4613;48.392;9.998;2023-02-20T09:28:11;1.47;;;1.37;;
9156;SDS011;4613;48.392;9.998;2023-02-20T09:31:00;1.93;;;1.40;;
9156;SDS011;4613;48.392;9.998;2023-02-20T09:33:50;1.63;;;1.40;;
9156;SDS011;4613;48.392;9.998;2023-02-20T09:36:39;2.50;;;1.50;;
9156;SDS011;4613;48.392;9.998;2023-02-20T09:39:28;1.77;;;1.30;;
9156;SDS011;4613;48.392;9.998;2023-02-20T09:45:35;1.13;;;1.03;;
9156;SDS011;4613;48.392;9.998;2023-02-20T09:48:38;2.13;;;1.70;;
9156;SDS011;4613;48.392;9.998;2023-02-20T09:51:35;1.50;;;1.40;;
9156;SDS011;4613;48.392;9.998;2023-02-20T09:54:46;2.57;;;1.50;;
9156;SDS011;4613;48.392;9.998;2023-02-20T09:57:39;1.77;;;1.40;;
9156;SDS011;4613;48.392;9.998;2023-02-20T10:00:31;1.57;;;1.47;;
9156;SDS011;4613;48.392;9.998;2023-02-20T10:03:36;1.27;;;1.17;;
9156;SDS011;4613;48.392;9.998;2023-02-20T10:06:35;1.70;;;1.10;;
9156;SDS011;4613;48.392;9.998;2023-02-20T10:09:24;2.20;;;1.20;;
9156;SDS011;4613;48.392;9.998;2023-02-20T10:12:31;1.47;;;1.37;;
9156;SDS011;4613;48.392;9.998;2023-02-20T10:18:32;1.73;;;1.27;;
9156;SDS011;4613;48.392;9.998;2023-02-20T10:24:34;2.33;;;1.53;;
9156;SDS011;4613;48.392;9.998;2023-02-20T10:27:51;2.30;;;1.30;;
9156;SDS011;4613;48.392;9.998;2023-02-20T10:30:56;1.40;;;1.30;;
9156;SDS011;4613;48.392;9.998;2023-02-20T10:33:57;4.27;;;1.30;;
9156;SDS011;4613;48.392;9.998;2023-02-20T10:36:53;2.10;;;1.33;;
9156;SDS011;4613;48.392;9.998;2023-02-20T10:39:57;2.50;;;1.40;;
9156;SDS011;4613;48.392;9.998;2023-02-20T10:46:14;1.00;;;1.00;;
9156;SDS011;4613;48.392;9.998;2023-02-20T10:49:58;1.50;;;1.40;;
9156;SDS011;4613;48.392;9.998;2023-02-20T10:52:35;1.07;;;1.07;;
9156;SDS011;4613;48.392;9.998;2023-02-20T10:58:32;1.43;;;1.33;;
9156;SDS011;4613;48.392;9.998;2023-02-20T11:01:34;1.43;;;1.33;;
9156;SDS011;4613;48.392;9.998;2023-02-20T11:04:29;1.43;;;1.33;;
9156;SDS011;4613;48.392;9.998;2023-02-20T11:07:26;1.50;;;1.40;;
9156;SDS011;4613;48.392;9.998;2023-02-20T11:10:15;1.53;;;1.43;;
9156;SDS011;4613;48.392;9.998;2023-02-20T11:13:05;1.87;;;1.40;;
9156;SDS011;4613;48.392;9.998;2023-02-20T11:16:02;1.70;;;1.30;;
9156;SDS011;4613;48.392;9.998;2023-02-20T11:18:54;1.33;;;1.27;;
9156;SDS011;4613;48.392;9.998;2023-02-20T11:21:50;1.50;;;1.40;;
9156;SDS011;4613;48.392;9.998;2023-02-20T11:24:42;2.40;;;1.40;;
9156;SDS011;4613;48.392;9.998;2023-02-20T11:27:35;1.73;;;1.60;;
9156;SDS011;4613;48.392;9.998;2023-02-20T11:33:41;1.33;;;1.23;;
9156;SDS011;4613;48.392;9.998;2023-02-20T11:36:41;1.20;;;1.10;;
9156;SDS011;4613;48.392;9.998;2023-02-20T11:39:33;1.53;;;1.43;;
9156;SDS011;4613;48.392;9.998;2023-02-20T11:42:31;1.63;;;1.27;;
9156;SDS011;4613;48.392;9.998;2023-02-20T11:45:23;1.43;;;1.13;;
9156;SDS011;4613;48.392;9.998;2023-02-20T11:48:32;1.23;;;1.10;;
9156;SDS011;4613;48.392;9.998;2023-02-20T11:54:22;1.90;;;1.53;;
9156;SDS011;4613;48.392;9.998;2023-02-20T11:57:28;1.40;;;1.30;;
9156;SDS011;4613;48.392;9.998;2023-02-20T12:00:28;1.50;;;1.40;;
9156;SDS011;4613;48.392;9.998;2023-02-20T12:03:35;1.57;;;1.30;;
9156;SDS011;4613;48.392;9.998;2023-02-20T12:06:32;1.40;;;1.30;;
9156;SDS011;4613;48.392;9.998;2023-02-20T12:09:30;2.00;;;1.43;;
9156;SDS011;4613;48.392;9.998;2023-02-20T12:12:19;1.93;;;1.40;;
9156;SDS011;4613;48.392;9.998;2023-02-20T12:15:12;1.40;;;1.30;;
9156;SDS011;4613;48.392;9.998;2023-02-20T12:18:21;1.40;;;1.30;;
9156;SDS011;4613;48.392;9.998;2023-02-20T12:27:33;1.30;;;1.20;;
9156;SDS011;4613;48.392;9.998;2023-02-20T12:36:47;1.30;;;1.20;;
9156;SDS011;4613;48.392;9.998;2023-02-20T12:40:02;1.73;;;1.20;;
9156;SDS011;4613;48.392;9.998;2023-02-20T12:46:21;1.70;;;1.33;;
9156;SDS011;4613;48.392;9.998;2023-02-20T12:58:59;1.33;;;1.23;;
9156;SDS011;4613;48.392;9.998;2023-02-20T13:01:55;1.37;;;1.20;;
9156;SDS011;4613;48.392;9.998;2023-02-20T13:04:56;1.03;;;0.93;;
9156;SDS011;4613;48.392;9.998;2023-02-20T13:07:52;2.43;;;1.03;;
9156;SDS011;4613;48.392;9.998;2023-02-20T13:10:56;1.47;;;1.17;;
9156;SDS011;4613;48.392;9.998;2023-02-20T13:16:42;2.13;;;1.00;;
9156;SDS011;4613;48.392;9.998;2023-02-20T13:19:41;1.30;;;1.20;;
9156;SDS011;4613;48.392;9.998;2023-02-20T13:25:54;1.07;;;0.93;;
9156;SDS011;4613;48.392;9.998;2023-02-20T13:28:44;1.30;;;1.00;;
9156;SDS011;4613;48.392;9.998;2023-02-20T13:49:01;0.73;;;0.73;;
9156;SDS011;4613;48.392;9.998;2023-02-20T13:51:52;1.13;;;0.90;;
9156;SDS011;4613;48.392;9.998;2023-02-20T13:54:42;0.87;;;0.87;;
9156;SDS011;4613;48.392;9.998;2023-02-20T13:57:32;0.97;;;0.97;;
9156;SDS011;4613;48.392;9.998;2023-02-20T14:00:49;0.93;;;0.93;;
9156;SDS011;4613;48.392;9.998;2023-02-20T14:03:39;0.90;;;0.90;;
9156;SDS011;4613;48.392;9.998;2023-02-20T14:06:32;0.80;;;0.80;;
9156;SDS011;4613;48.392;9.998;2023-02-20T14:09:36;1.47;;;1.00;;
9156;SDS011;4613;48.392;9.998;2023-02-20T14:12:26;1.20;;;1.10;;
9156;SDS011;4613;48.392;9.998;2023-02-20T14:15:15;1.20;;;1.10;;
9156;SDS011;4613;48.392;9.998;2023-02-20T14:18:05;0.90;;;0.90;;
9156;SDS011;4613;48.392;9.998;2023-02-20T14:21:16;0.90;;;0.90;;
9156;SDS011;4613;48.392;9.998;2023-02-20T14:24:12;0.70;;;0.70;;
9156;SDS011;4613;48.392;9.998;2023-02-20T14:27:26;0.83;;;0.73;;
9156;SDS011;4613;48.392;9.998;2023-02-20T14:30:21;0.90;;;0.90;;
9156;SDS011;4613;48.392;9.998;2023-02-20T14:33:18;0.70;;;0.70;;
9156;SDS011;4613;48.392;9.998;2023-02-20T14:36:19;0.87;;;0.87;;
9156;SDS011;4613;48.392;9.998;2023-02-20T14:39:16;1.33;;;1.07;;
9156;SDS011;4613;48.392;9.998;2023-02-20T14:42:22;1.00;;;0.90;;
9156;SDS011;4613;48.392;9.998;2023-02-20T14:45:14;0.80;;;0.80;;
9156;SDS011;4613;48.392;9.998;2023-02-20T14:48:23;2.87;;;0.80;;
9156;SDS011;4613;48.392;9.998;2023-02-20T14:51:20;0.80;;;0.80;;
9156;SDS011;4613;48.392;9.998;2023-02-20T14:54:22;1.03;;;0.90;;
9156;SDS011;4613;48.392;9.998;2023-02-20T14:57:13;1.10;;;1.00;;
9156;SDS011;4613;48.392;9.998;2023-02-20T15:00:08;0.90;;;0.90;;
9156;SDS011;4613;48.392;9.998;2023-02-20T15:03:00;0.83;;;0.83;;
9156;SDS011;4613;48.392;9.998;2023-02-20T15:05:58;4.03;;;0.93;;
9156;SDS011;4613;48.392;9.998;2023-02-20T15:08:54;1.10;;;1.00;;
9156;SDS011;4613;48.392;9.998;2023-02-20T15:11:52;1.33;;;0.90;;
9156;SDS011;4613;48.392;9.998;2023-02-20T15:14:51;0.80;;;0.80;;
9156;SDS011;4613;48.392;9.998;2023-02-20T15:18:04;1.00;;;1.00;;
9156;SDS011;4613;48.392;9.998;2023-02-20T15:20:59;0.93;;;0.80;;
9156;SDS011;4613;48.392;9.998;2023-02-20T15:23:50;1.47;;;1.00;;
9156;SDS011;4613;48.392;9.998;2023-02-20T15:26:44;1.20;;;1.07;;
9156;SDS011;4613;48.392;9.998;2023-02-20T15:29:34;1.10;;;0.97;;
9156;SDS011;4613;48.392;9.998;2023-02-20T15:32:24;0.90;;;0.90;;
9156;SDS011;4613;48.392;9.998;2023-02-20T15:35:23;1.30;;;1.13;;
9156;SDS011;4613;48.392;9.998;2023-02-20T15:38:15;1.00;;;1.00;;
9156;SDS011;4613;48.392;9.998;2023-02-20T15:41:04;1.40;;;1.30;;
9156;SDS011;4613;48.392;9.998;2023-02-20T15:43:54;1.20;;;1.10;;
9156;SDS011;4613;48.392;9.998;2023-02-20T15:46:46;1.20;;;1.03;;
9156;SDS011;4613;48.392;9.998;2023-02-20T15:49:40;1.10;;;1.00;;
9156;SDS011;4613;48.392;9.998;2023-02-20T15:52:29;1.20;;;1.10;;
9156;SDS011;4613;48.392;9.998;2023-02-20T15:55:21;1.20;;;1.10;;
9156;SDS011;4613;48.392;9.998;2023-02-20T15:58:22;0.97;;;0.97;;
9156;SDS011;4613;48.392;9.998;2023-02-20T16:01:16;1.20;;;1.10;;
9156;SDS011;4613;48.392;9.998;2023-02-20T16:04:06;2.50;;;1.27;;
9156;SDS011;4613;48.392;9.998;2023-02-20T16:06:57;1.40;;;1.30;;
9156;SDS011;4613;48.392;9.998;2023-02-20T16:09:48;1.10;;;1.10;;
9156;SDS011;4613;48.392;9.998;2023-02-20T16:12:38;2.37;;;1.23;;
9156;SDS011;4613;48.392;9.998;2023-02-20T16:15:28;2.13;;;1.07;;
9156;SDS011;4613;48.392;9.998;2023-02-20T16:18:18;1.47;;;1.10;;
9156;SDS011;4613;48.392;9.998;2023-02-20T16:21:12;0.90;;;0.90;;
9156;SDS011;4613;48.392;9.998;2023-02-20T16:24:03;0.93;;;0.87;;
9156;SDS011;4613;48.392;9.998;2023-02-20T16:26:59;0.93;;;0.93;;
9156;SDS011;4613;48.392;9.998;2023-02-20T16:29:53;1.50;;;0.90;;
9156;SDS011;4613;48.392;9.998;2023-02-20T16:32:44;0.77;;;0.77;;
9156;SDS011;4613;48.392;9.998;2023-02-20T16:35:34;0.80;;;0.80;;
9156;SDS011;4613;48.392;9.998;2023-02-20T16:38:24;0.70;;;0.70;;
9156;SDS011;4613;48.392;9.998;2023-02-20T16:41:13;0.70;;;0.70;;
9156;SDS011;4613;48.392;9.998;2023-02-20T16:44:05;0.83;;;0.77;;
9156;SDS011;4613;48.392;9.998;2023-02-20T16:47:23;0.67;;;0.67;;
9156;SDS011;4613;48.392;9.998;2023-02-20T16:50:16;1.20;;;0.90;;
9156;SDS011;4613;48.392;9.998;2023-02-20T16:53:09;1.27;;;1.03;;
9156;SDS011;4613;48.392;9.998;2023-02-20T16:56:00;1.00;;;1.00;;
9156;SDS011;4613;48.392;9.998;2023-02-20T16:58:49;1.87;;;1.10;;
9156;SDS011;4613;48.392;9.998;2023-02-20T17:01:39;1.07;;;0.97;;
9156;SDS011;4613;48.392;9.998;2023-02-20T17:04:29;1.70;;;1.20;;
9156;SDS011;4613;48.392;9.998;2023-02-20T17:07:19;2.57;;;1.00;;
9156;SDS011;4613;48.392;9.998;2023-02-20T17:10:10;0.70;;;0.70;;
9156;SDS011;4613;48.392;9.998;2023-02-20T17:13:01;0.87;;;0.87;;
9156;SDS011;4613;48.392;9.998;2023-02-20T17:15:51;1.00;;;0.90;;
9156;SDS011;4613;48.392;9.998;2023-02-20T17:18:41;0.90;;;0.90;;
9156;SDS011;4613;48.392;9.998;2023-02-20T17:21:30;0.80;;;0.80;;
9156;SDS011;4613;48.392;9.998;2023-02-20T17:24:20;1.50;;;0.90;;
9156;SDS011;4613;48.392;9.998;2023-02-20T17:27:11;1.13;;;0.90;;
9156;SDS011;4613;48.392;9.998;2023-02-20T17:30:02;0.97;;;0.90;;
9156;SDS011;4613;48.392;9.998;2023-02-20T17:32:51;1.60;;;1.10;;
9156;SDS011;4613;48.392;9.998;2023-02-20T17:35:41;1.53;;;1.13;;
9156;SDS011;4613;48.392;9.998;2023-02-20T17:38:31;0.90;;;0.90;;
9156;SDS011;4613;48.392;9.998;2023-02-20T17:41:21;0.73;;;0.73;;
9156;SDS011;4613;48.392;9.998;2023-02-20T17:44:17;0.90;;;0.90;;
9156;SDS011;4613;48.392;9.998;2023-02-20T17:47:09;0.90;;;0.90;;
9156;SDS011;4613;48.392;9.998;2023-02-20T17:50:00;0.93;;;0.80;;
9156;SDS011;4613;48.392;9.998;2023-02-20T17:52:52;0.80;;;0.80;;
9156;SDS011;4613;48.392;9.998;2023-02-20T17:55:45;0.70;;;0.70;;
9156;SDS011;4613;48.392;9.998;2023-02-20T17:58:39;2.07;;;0.70;;
9156;SDS011;4613;48.392;9.998;2023-02-20T18:01:31;1.10;;;0.80;;
9156;SDS011;4613;48.392;9.998;2023-02-20T18:04:20;0.60;;;0.60;;
9156;SDS011;4613;48.392;9.998;2023-02-20T18:07:11;0.80;;;0.80;;
9156;SDS011;4613;48.392;9.998;2023-02-20T18:10:02;0.90;;;0.90;;
9156;SDS011;4613;48.392;9.998;2023-02-20T18:12:52;0.93;;;0.83;;
9156;SDS011;4613;48.392;9.998;2023-02-20T18:15:51;2.63;;;1.17;;
9156;SDS011;4613;48.392;9.998;2023-02-20T18:18:40;2.00;;;1.30;;
9156;SDS011;4613;48.392;9.998;2023-02-20T18:21:30;1.20;;;1.10;;
9156;SDS011;4613;48.392;9.998;2023-02-20T18:24:20;1.33;;;1.10;;
9156;SDS011;4613;48.392;9.998;2023-02-20T18:27:12;2.73;;;1.00;;
9156;SDS011;4613;48.392;9.998;2023-02-20T18:30:01;1.67;;;1.37;;
9156;SDS011;4613;48.392;9.998;2023-02-20T18:32:51;1.63;;;1.27;;
9156;SDS011;4613;48.392;9.998;2023-02-20T18:35:40;3.13;;;2.40;;
9156;SDS011;4613;48.392;9.998;2023-02-20T18:38:30;1.63;;;1.47;;
9156;SDS011;4613;48.392;9.998;2023-02-20T18:41:20;1.13;;;1.13;;
9156;SDS011;4613;48.392;9.998;2023-02-20T18:44:10;1.43;;;1.13;;
9156;SDS011;4613;48.392;9.998;2023-02-20T18:47:01;1.37;;;1.17;;
9156;SDS011;4613;48.392;9.998;2023-02-20T18:49:50;1.17;;;1.17;;
9156;SDS011;4613;48.392;9.998;2023-02-20T18:52:40;1.50;;;1.40;;
9156;SDS011;4613;48.392;9.998;2023-02-20T18:55:36;1.47;;;1.37;;
9156;SDS011;4613;48.392;9.998;2023-02-20T18:58:26;1.73;;;1.50;;
9156;SDS011;4613;48.392;9.998;2023-02-20T19:01:19;2.17;;;1.27;;
9156;SDS011;4613;48.392;9.998;2023-02-20T19:04:12;1.80;;;1.40;;
9156;SDS011;4613;48.392;9.998;2023-02-20T19:07:02;2.67;;;1.50;;
9156;SDS011;4613;48.392;9.998;2023-02-20T19:09:52;1.50;;;1.40;;
9156;SDS011;4613;48.392;9.998;2023-02-20T19:12:43;2.53;;;1.43;;
9156;SDS011;4613;48.392;9.998;2023-02-20T19:15:32;1.70;;;1.30;;
9156;SDS011;4613;48.392;9.998;2023-02-20T19:18:23;1.33;;;1.27;;
9156;SDS011;4613;48.392;9.998;2023-02-20T19:21:13;2.53;;;1.30;;
9156;SDS011;4613;48.392;9.998;2023-02-20T19:24:03;1.17;;;1.07;;
9156;SDS011;4613;48.392;9.998;2023-02-20T19:26:53;1.20;;;1.10;;
9156;SDS011;4613;48.392;9.998;2023-02-20T19:29:43;1.27;;;1.07;;
9156;SDS011;4613;48.392;9.998;2023-02-20T19:32:33;1.27;;;1.13;;